sensor_id;sensor_type;location;lat;lon;timestamp;P1;durP1;ratioP1;P2;durP2;ratioP2
59239;SDS011;45010;53.640;10.578;2022-10-17T00:00:24;2.17;;;1.35;;
59239;SDS011;45010;53.640;10.578;2022-10-17T00:03:25;2.90;;;1.17;;
59239;SDS011;45010;53.640;10.578;2022-10-17T00:06:25;3.58;;;1.95;;
59239;SDS011;45010;53.640;10.578;2022-10-17T00:09:25;3.17;;;1.48;;
59239;SDS011;45010;53.640;10.578;2022-10-17T00:12:25;3.80;;;1.30;;
59239;SDS011;45010;53.640;10.578;2022-10-17T00:15:26;3.20;;;1.27;;
59239;SDS011;45010;53.640;10.578;2022-10-17T00:18:26;2.53;;;1.40;;
59239;SDS011;45010;53.640;10.578;2022-10-17T00:21:27;2.70;;;1.00;;
59239;SDS011;45010;53.640;10.578;2022-10-17T00:24:28;2.95;;;1.27;;
59239;SDS011;45010;53.640;10.578;2022-10-17T00:27:33;3.28;;;1.20;;
59239;SDS011;45010;53.640;10.578;2022-10-17T00:30:34;3.13;;;1.40;;
59239;SDS011;45010;53.640;10.578;2022-10-17T00:33:35;2.38;;;1.25;;
59239;SDS011;45010;53.640;10.578;2022-10-17T00:36:35;1.70;;;1.00;;
59239;SDS011;45010;53.640;10.578;2022-10-17T00:39:36;1.60;;;1.08;;
59239;SDS011;45010;53.640;10.578;2022-10-17T00:42:37;4.47;;;1.25;;
59239;SDS011;45010;53.640;10.578;2022-10-17T00:45:37;4.00;;;1.13;;
59239;SDS011;45010;53.640;10.578;2022-10-17T00:48:38;1.75;;;1.10;;
59239;SDS011;45010;53.640;10.578;2022-10-17T00:51:45;2.65;;;1.20;;
59239;SDS011;45010;53.640;10.578;2022-10-17T00:54:53;1.33;;;0.80;;
59239;SDS011;45010;53.640;10.578;2022-10-17T00:57:57;2.65;;;1.10;;
59239;SDS011;45010;53.640;10.578;2022-10-17T01:01:01;2.40;;;1.23;;
59239;SDS011;45010;53.640;10.578;2022-10-17T01:04:02;2.13;;;1.40;;
59239;SDS011;45010;53.640;10.578;2022-10-17T01:07:02;1.75;;;1.00;;
59239;SDS011;45010;53.640;10.578;2022-10-17T01:10:02;1.65;;;1.08;;
59239;SDS011;45010;53.640;10.578;2022-10-17T01:13:22;2.28;;;1.10;;
59239;SDS011;45010;53.640;10.578;2022-10-17T01:17:37;2.05;;;0.88;;
59239;SDS011;45010;53.640;10.578;2022-10-17T01:27:34;1.95;;;0.90;;
59239;SDS011;45010;53.640;10.578;2022-10-17T01:30:44;2.08;;;1.17;;
59239;SDS011;45010;53.640;10.578;2022-10-17T01:34:01;2.45;;;1.20;;
59239;SDS011;45010;53.640;10.578;2022-10-17T01:37:15;2.63;;;1.42;;
59239;SDS011;45010;53.640;10.578;2022-10-17T01:40:25;2.47;;;1.60;;
59239;SDS011;45010;53.640;10.578;2022-10-17T01:43:33;1.90;;;1.02;;
59239;SDS011;45010;53.640;10.578;2022-10-17T01:46:41;2.05;;;1.30;;
59239;SDS011;45010;53.640;10.578;2022-10-17T01:49:48;2.17;;;0.90;;
59239;SDS011;45010;53.640;10.578;2022-10-17T01:52:57;1.60;;;0.93;;
59239;SDS011;45010;53.640;10.578;2022-10-17T01:56:02;2.28;;;1.20;;
59239;SDS011;45010;53.640;10.578;2022-10-17T01:59:14;1.90;;;0.98;;
59239;SDS011;45010;53.640;10.578;2022-10-17T02:02:18;1.50;;;0.95;;
59239;SDS011;45010;53.640;10.578;2022-10-17T02:05:21;2.15;;;1.05;;
59239;SDS011;45010;53.640;10.578;2022-10-17T02:08:46;2.45;;;1.13;;
59239;SDS011;45010;53.640;10.578;2022-10-17T02:11:49;1.67;;;1.10;;
59239;SDS011;45010;53.640;10.578;2022-10-17T02:22:34;1.05;;;0.90;;
59239;SDS011;45010;53.640;10.578;2022-10-17T02:25:44;2.40;;;1.00;;
59239;SDS011;45010;53.640;10.578;2022-10-17T02:29:07;0.98;;;0.75;;
59239;SDS011;45010;53.640;10.578;2022-10-17T02:32:22;1.65;;;0.95;;
59239;SDS011;45010;53.640;10.578;2022-10-17T02:35:28;1.83;;;1.00;;
59239;SDS011;45010;53.640;10.578;2022-10-17T02:38:31;0.93;;;0.68;;
59239;SDS011;45010;53.640;10.578;2022-10-17T02:41:33;1.48;;;0.98;;
59239;SDS011;45010;53.640;10.578;2022-10-17T02:44:36;1.33;;;0.82;;
59239;SDS011;45010;53.640;10.578;2022-10-17T03:00:41;1.50;;;0.75;;
59239;SDS011;45010;53.640;10.578;2022-10-17T03:03:42;2.05;;;1.00;;
59239;SDS011;45010;53.640;10.578;2022-10-17T03:06:42;0.90;;;0.70;;
59239;SDS011;45010;53.640;10.578;2022-10-17T03:09:45;1.70;;;0.80;;
59239;SDS011;45010;53.640;10.578;2022-10-17T03:12:45;1.35;;;0.82;;
59239;SDS011;45010;53.640;10.578;2022-10-17T03:15:45;1.67;;;0.98;;
59239;SDS011;45010;53.640;10.578;2022-10-17T03:18:46;1.42;;;0.95;;
59239;SDS011;45010;53.640;10.578;2022-10-17T03:21:46;2.58;;;0.90;;
59239;SDS011;45010;53.640;10.578;2022-10-17T03:24:47;1.40;;;0.80;;
59239;SDS011;45010;53.640;10.578;2022-10-17T03:27:47;2.08;;;0.95;;
59239;SDS011;45010;53.640;10.578;2022-10-17T03:30:48;1.00;;;0.70;;
59239;SDS011;45010;53.640;10.578;2022-10-17T03:33:48;0.85;;;0.60;;
59239;SDS011;45010;53.640;10.578;2022-10-17T03:36:48;1.65;;;0.80;;
59239;SDS011;45010;53.640;10.578;2022-10-17T03:39:49;0.93;;;0.60;;
59239;SDS011;45010;53.640;10.578;2022-10-17T03:42:49;1.40;;;1.05;;
59239;SDS011;45010;53.640;10.578;2022-10-17T03:45:49;1.23;;;0.80;;
59239;SDS011;45010;53.640;10.578;2022-10-17T03:48:50;1.55;;;0.80;;
59239;SDS011;45010;53.640;10.578;2022-10-17T03:51:50;1.30;;;0.90;;
59239;SDS011;45010;53.640;10.578;2022-10-17T03:54:50;0.88;;;0.70;;
59239;SDS011;45010;53.640;10.578;2022-10-17T03:57:51;0.95;;;0.80;;
59239;SDS011;45010;53.640;10.578;2022-10-17T04:00:51;1.52;;;0.88;;
59239;SDS011;45010;53.640;10.578;2022-10-17T04:03:52;1.33;;;0.90;;
59239;SDS011;45010;53.640;10.578;2022-10-17T04:06:54;1.55;;;0.70;;
59239;SDS011;45010;53.640;10.578;2022-10-17T04:09:54;0.88;;;0.80;;
59239;SDS011;45010;53.640;10.578;2022-10-17T04:12:55;1.77;;;0.80;;
59239;SDS011;45010;53.640;10.578;2022-10-17T04:15:56;2.80;;;1.33;;
59239;SDS011;45010;53.640;10.578;2022-10-17T04:18:58;0.90;;;0.73;;
59239;SDS011;45010;53.640;10.578;2022-10-17T04:21:59;0.90;;;0.68;;
59239;SDS011;45010;53.640;10.578;2022-10-17T04:24:59;2.50;;;0.80;;
59239;SDS011;45010;53.640;10.578;2022-10-17T04:27:59;1.20;;;0.70;;
59239;SDS011;45010;53.640;10.578;2022-10-17T04:31:01;1.10;;;0.75;;
59239;SDS011;45010;53.640;10.578;2022-10-17T04:34:03;1.38;;;0.73;;
59239;SDS011;45010;53.640;10.578;2022-10-17T04:37:03;1.52;;;0.70;;
59239;SDS011;45010;53.640;10.578;2022-10-17T04:40:04;1.52;;;0.70;;
59239;SDS011;45010;53.640;10.578;2022-10-17T04:43:04;1.15;;;0.80;;
59239;SDS011;45010;53.640;10.578;2022-10-17T04:46:06;1.00;;;0.70;;
59239;SDS011;45010;53.640;10.578;2022-10-17T04:49:08;0.93;;;0.70;;
59239;SDS011;45010;53.640;10.578;2022-10-17T04:52:08;1.00;;;0.70;;
59239;SDS011;45010;53.640;10.578;2022-10-17T04:55:09;1.08;;;0.70;;
59239;SDS011;45010;53.640;10.578;2022-10-17T04:58:09;1.25;;;0.90;;
59239;SDS011;45010;53.640;10.578;2022-10-17T05:01:11;0.70;;;0.60;;
59239;SDS011;45010;53.640;10.578;2022-10-17T05:04:13;1.15;;;0.93;;
59239;SDS011;45010;53.640;10.578;2022-10-17T05:07:13;0.68;;;0.60;;
59239;SDS011;45010;53.640;10.578;2022-10-17T05:10:14;0.85;;;0.60;;
59239;SDS011;45010;53.640;10.578;2022-10-17T05:13:14;1.17;;;0.70;;
59239;SDS011;45010;53.640;10.578;2022-10-17T05:16:15;1.33;;;0.80;;
59239;SDS011;45010;53.640;10.578;2022-10-17T05:19:15;2.00;;;1.02;;
59239;SDS011;45010;53.640;10.578;2022-10-17T05:22:17;1.35;;;0.70;;
59239;SDS011;45010;53.640;10.578;2022-10-17T05:25:17;1.23;;;0.65;;
59239;SDS011;45010;53.640;10.578;2022-10-17T05:28:18;1.77;;;0.80;;
59239;SDS011;45010;53.640;10.578;2022-10-17T05:31:18;1.27;;;0.60;;
59239;SDS011;45010;53.640;10.578;2022-10-17T05:34:19;2.50;;;0.90;;
59239;SDS011;45010;53.640;10.578;2022-10-17T05:37:19;1.65;;;0.80;;
59239;SDS011;45010;53.640;10.578;2022-10-17T05:40:20;1.17;;;0.70;;
59239;SDS011;45010;53.640;10.578;2022-10-17T05:43:20;1.73;;;0.93;;
59239;SDS011;45010;53.640;10.578;2022-10-17T05:46:20;0.82;;;0.65;;
59239;SDS011;45010;53.640;10.578;2022-10-17T05:49:20;1.50;;;0.65;;
59239;SDS011;45010;53.640;10.578;2022-10-17T05:52:21;0.70;;;0.60;;
59239;SDS011;45010;53.640;10.578;2022-10-17T05:55:21;0.57;;;0.57;;
59239;SDS011;45010;53.640;10.578;2022-10-17T05:58:22;0.75;;;0.60;;
59239;SDS011;45010;53.640;10.578;2022-10-17T06:01:22;1.50;;;0.75;;
59239;SDS011;45010;53.640;10.578;2022-10-17T06:04:23;0.77;;;0.70;;
59239;SDS011;45010;53.640;10.578;2022-10-17T06:07:23;0.95;;;0.63;;
59239;SDS011;45010;53.640;10.578;2022-10-17T06:10:24;0.90;;;0.60;;
59239;SDS011;45010;53.640;10.578;2022-10-17T06:13:24;1.10;;;1.00;;
59239;SDS011;45010;53.640;10.578;2022-10-17T06:16:25;0.50;;;0.50;;
59239;SDS011;45010;53.640;10.578;2022-10-17T06:19:25;0.90;;;0.60;;
59239;SDS011;45010;53.640;10.578;2022-10-17T06:22:26;0.95;;;0.70;;
59239;SDS011;45010;53.640;10.578;2022-10-17T06:25:26;0.85;;;0.68;;
59239;SDS011;45010;53.640;10.578;2022-10-17T06:28:28;0.80;;;0.60;;
59239;SDS011;45010;53.640;10.578;2022-10-17T06:31:28;1.17;;;0.70;;
59239;SDS011;45010;53.640;10.578;2022-10-17T06:34:29;1.05;;;0.95;;
59239;SDS011;45010;53.640;10.578;2022-10-17T06:37:30;1.48;;;0.80;;
59239;SDS011;45010;53.640;10.578;2022-10-17T06:40:32;0.80;;;0.80;;
59239;SDS011;45010;53.640;10.578;2022-10-17T06:43:32;1.10;;;0.57;;
59239;SDS011;45010;53.640;10.578;2022-10-17T06:46:33;0.82;;;0.60;;
59239;SDS011;45010;53.640;10.578;2022-10-17T06:49:34;0.63;;;0.50;;
59239;SDS011;45010;53.640;10.578;2022-10-17T06:52:34;0.75;;;0.63;;
59239;SDS011;45010;53.640;10.578;2022-10-17T06:55:34;0.70;;;0.68;;
59239;SDS011;45010;53.640;10.578;2022-10-17T06:58:36;0.77;;;0.52;;
59239;SDS011;45010;53.640;10.578;2022-10-17T07:01:38;0.77;;;0.52;;
59239;SDS011;45010;53.640;10.578;2022-10-17T07:04:38;0.80;;;0.80;;
59239;SDS011;45010;53.640;10.578;2022-10-17T07:07:39;0.80;;;0.80;;
59239;SDS011;45010;53.640;10.578;2022-10-17T07:10:39;1.17;;;0.85;;
59239;SDS011;45010;53.640;10.578;2022-10-17T07:13:39;1.83;;;0.65;;
59239;SDS011;45010;53.640;10.578;2022-10-17T07:16:40;0.90;;;0.50;;
59239;SDS011;45010;53.640;10.578;2022-10-17T07:19:40;1.17;;;0.55;;
59239;SDS011;45010;53.640;10.578;2022-10-17T07:22:42;1.05;;;0.60;;
59239;SDS011;45010;53.640;10.578;2022-10-17T07:25:42;1.48;;;0.65;;
59239;SDS011;45010;53.640;10.578;2022-10-17T07:28:43;0.85;;;0.60;;
59239;SDS011;45010;53.640;10.578;2022-10-17T07:31:45;0.98;;;0.60;;
59239;SDS011;45010;53.640;10.578;2022-10-17T07:34:47;0.77;;;0.50;;
59239;SDS011;45010;53.640;10.578;2022-10-17T07:37:48;1.52;;;0.80;;
59239;SDS011;45010;53.640;10.578;2022-10-17T07:40:55;2.60;;;0.60;;
59239;SDS011;45010;53.640;10.578;2022-10-17T07:43:59;1.05;;;0.70;;
59239;SDS011;45010;53.640;10.578;2022-10-17T07:47:00;2.00;;;0.95;;
59239;SDS011;45010;53.640;10.578;2022-10-17T07:50:04;3.25;;;0.98;;
59239;SDS011;45010;53.640;10.578;2022-10-17T07:53:04;3.35;;;1.30;;
59239;SDS011;45010;53.640;10.578;2022-10-17T07:56:06;5.85;;;2.05;;
59239;SDS011;45010;53.640;10.578;2022-10-17T07:59:07;5.05;;;1.63;;
59239;SDS011;45010;53.640;10.578;2022-10-17T08:02:09;6.03;;;1.30;;
59239;SDS011;45010;53.640;10.578;2022-10-17T08:05:19;6.55;;;1.58;;
59239;SDS011;45010;53.640;10.578;2022-10-17T08:08:19;5.45;;;1.92;;
59239;SDS011;45010;53.640;10.578;2022-10-17T08:11:20;4.60;;;1.30;;
59239;SDS011;45010;53.640;10.578;2022-10-17T08:14:21;6.75;;;1.40;;
59239;SDS011;45010;53.640;10.578;2022-10-17T08:17:22;3.75;;;1.10;;
59239;SDS011;45010;53.640;10.578;2022-10-17T08:20:22;7.35;;;1.35;;
59239;SDS011;45010;53.640;10.578;2022-10-17T08:23:22;6.45;;;1.38;;
59239;SDS011;45010;53.640;10.578;2022-10-17T08:26:23;6.35;;;1.50;;
59239;SDS011;45010;53.640;10.578;2022-10-17T08:29:23;4.03;;;1.35;;
59239;SDS011;45010;53.640;10.578;2022-10-17T08:32:24;4.28;;;1.50;;
59239;SDS011;45010;53.640;10.578;2022-10-17T08:35:26;3.83;;;1.50;;
59239;SDS011;45010;53.640;10.578;2022-10-17T08:38:30;5.15;;;1.73;;
59239;SDS011;45010;53.640;10.578;2022-10-17T08:41:52;7.63;;;1.80;;
59239;SDS011;45010;53.640;10.578;2022-10-17T08:45:16;3.55;;;1.27;;
59239;SDS011;45010;53.640;10.578;2022-10-17T08:48:19;3.75;;;1.75;;
59239;SDS011;45010;53.640;10.578;2022-10-17T08:51:24;4.57;;;1.83;;
59239;SDS011;45010;53.640;10.578;2022-10-17T08:54:35;3.05;;;1.45;;
59239;SDS011;45010;53.640;10.578;2022-10-17T08:57:41;10.77;;;1.30;;
59239;SDS011;45010;53.640;10.578;2022-10-17T09:00:46;3.85;;;1.60;;
59239;SDS011;45010;53.640;10.578;2022-10-17T09:07:52;4.50;;;1.33;;
59239;SDS011;45010;53.640;10.578;2022-10-17T09:10:56;10.98;;;1.90;;
59239;SDS011;45010;53.640;10.578;2022-10-17T09:20:20;6.85;;;1.48;;
59239;SDS011;45010;53.640;10.578;2022-10-17T09:23:24;3.05;;;1.10;;
59239;SDS011;45010;53.640;10.578;2022-10-17T09:26:29;2.85;;;1.20;;
59239;SDS011;45010;53.640;10.578;2022-10-17T09:29:29;1.67;;;1.20;;
59239;SDS011;45010;53.640;10.578;2022-10-17T09:32:30;2.80;;;1.27;;
59239;SDS011;45010;53.640;10.578;2022-10-17T09:35:31;7.30;;;1.48;;
59239;SDS011;45010;53.640;10.578;2022-10-17T09:38:44;3.25;;;1.13;;
59239;SDS011;45010;53.640;10.578;2022-10-17T09:41:51;2.00;;;1.08;;
59239;SDS011;45010;53.640;10.578;2022-10-17T09:48:39;3.97;;;1.17;;
59239;SDS011;45010;53.640;10.578;2022-10-17T09:51:44;2.83;;;1.40;;
59239;SDS011;45010;53.640;10.578;2022-10-17T09:57:57;3.72;;;1.23;;
59239;SDS011;45010;53.640;10.578;2022-10-17T10:01:13;6.55;;;1.30;;
59239;SDS011;45010;53.640;10.578;2022-10-17T10:04:24;4.70;;;1.20;;
59239;SDS011;45010;53.640;10.578;2022-10-17T10:07:27;4.82;;;1.40;;
59239;SDS011;45010;53.640;10.578;2022-10-17T10:10:30;4.68;;;1.30;;
59239;SDS011;45010;53.640;10.578;2022-10-17T10:13:32;5.40;;;1.20;;
59239;SDS011;45010;53.640;10.578;2022-10-17T10:16:33;3.10;;;1.30;;
59239;SDS011;45010;53.640;10.578;2022-10-17T10:19:48;2.63;;;1.00;;
59239;SDS011;45010;53.640;10.578;2022-10-17T10:23:05;2.90;;;1.40;;
59239;SDS011;45010;53.640;10.578;2022-10-17T10:26:20;3.42;;;1.13;;
59239;SDS011;45010;53.640;10.578;2022-10-17T10:29:42;2.20;;;0.95;;
59239;SDS011;45010;53.640;10.578;2022-10-17T10:32:48;2.30;;;1.50;;
59239;SDS011;45010;53.640;10.578;2022-10-17T10:36:08;1.80;;;1.30;;
59239;SDS011;45010;53.640;10.578;2022-10-17T10:39:09;2.25;;;1.10;;
59239;SDS011;45010;53.640;10.578;2022-10-17T10:42:30;4.00;;;1.40;;
59239;SDS011;45010;53.640;10.578;2022-10-17T10:48:35;2.03;;;1.25;;
59239;SDS011;45010;53.640;10.578;2022-10-17T10:51:41;2.15;;;1.48;;
59239;SDS011;45010;53.640;10.578;2022-10-17T10:54:50;2.88;;;1.40;;
59239;SDS011;45010;53.640;10.578;2022-10-17T10:57:58;3.25;;;1.20;;
59239;SDS011;45010;53.640;10.578;2022-10-17T11:01:04;2.45;;;1.40;;
59239;SDS011;45010;53.640;10.578;2022-10-17T11:04:17;2.25;;;1.30;;
59239;SDS011;45010;53.640;10.578;2022-10-17T11:14:31;2.80;;;1.58;;
59239;SDS011;45010;53.640;10.578;2022-10-17T11:24:17;2.40;;;1.50;;
59239;SDS011;45010;53.640;10.578;2022-10-17T11:27:23;3.53;;;1.45;;
59239;SDS011;45010;53.640;10.578;2022-10-17T11:30:26;4.55;;;1.60;;
59239;SDS011;45010;53.640;10.578;2022-10-17T11:33:40;1.83;;;1.58;;
59239;SDS011;45010;53.640;10.578;2022-10-17T11:36:47;4.78;;;1.73;;
59239;SDS011;45010;53.640;10.578;2022-10-17T11:39:53;2.78;;;1.70;;
59239;SDS011;45010;53.640;10.578;2022-10-17T11:42:57;5.50;;;1.70;;
59239;SDS011;45010;53.640;10.578;2022-10-17T11:46:02;5.68;;;1.65;;
59239;SDS011;45010;53.640;10.578;2022-10-17T11:49:11;2.15;;;1.92;;
59239;SDS011;45010;53.640;10.578;2022-10-17T11:55:34;2.55;;;1.85;;
59239;SDS011;45010;53.640;10.578;2022-10-17T11:58:52;2.17;;;1.50;;
59239;SDS011;45010;53.640;10.578;2022-10-17T12:02:06;3.00;;;1.95;;
59239;SDS011;45010;53.640;10.578;2022-10-17T12:11:54;4.43;;;1.83;;
59239;SDS011;45010;53.640;10.578;2022-10-17T12:18:15;2.35;;;1.60;;
59239;SDS011;45010;53.640;10.578;2022-10-17T12:21:16;3.70;;;1.85;;
59239;SDS011;45010;53.640;10.578;2022-10-17T12:24:23;4.45;;;2.10;;
59239;SDS011;45010;53.640;10.578;2022-10-17T12:27:35;6.20;;;2.25;;
59239;SDS011;45010;53.640;10.578;2022-10-17T12:30:36;4.18;;;2.20;;
59239;SDS011;45010;53.640;10.578;2022-10-17T12:33:55;3.97;;;1.85;;
59239;SDS011;45010;53.640;10.578;2022-10-17T12:36:58;3.83;;;2.40;;
59239;SDS011;45010;53.640;10.578;2022-10-17T12:39:59;4.65;;;1.83;;
59239;SDS011;45010;53.640;10.578;2022-10-17T12:42:59;4.13;;;1.88;;
59239;SDS011;45010;53.640;10.578;2022-10-17T12:46:01;2.88;;;2.00;;
59239;SDS011;45010;53.640;10.578;2022-10-17T12:49:03;3.95;;;1.77;;
59239;SDS011;45010;53.640;10.578;2022-10-17T12:55:33;5.72;;;2.15;;
59239;SDS011;45010;53.640;10.578;2022-10-17T12:58:34;3.55;;;2.15;;
59239;SDS011;45010;53.640;10.578;2022-10-17T13:01:36;4.72;;;1.95;;
59239;SDS011;45010;53.640;10.578;2022-10-17T13:04:38;4.28;;;2.60;;
59239;SDS011;45010;53.640;10.578;2022-10-17T13:07:40;4.05;;;2.20;;
59239;SDS011;45010;53.640;10.578;2022-10-17T13:10:44;4.95;;;2.15;;
59239;SDS011;45010;53.640;10.578;2022-10-17T13:19:54;2.65;;;1.70;;
59239;SDS011;45010;53.640;10.578;2022-10-17T13:22:55;5.80;;;2.83;;
59239;SDS011;45010;53.640;10.578;2022-10-17T13:26:06;3.47;;;1.80;;
59239;SDS011;45010;53.640;10.578;2022-10-17T13:29:19;3.45;;;1.95;;
59239;SDS011;45010;53.640;10.578;2022-10-17T13:32:21;2.80;;;1.88;;
59239;SDS011;45010;53.640;10.578;2022-10-17T13:35:29;4.93;;;1.90;;
59239;SDS011;45010;53.640;10.578;2022-10-17T13:38:32;3.67;;;1.92;;
59239;SDS011;45010;53.640;10.578;2022-10-17T13:41:34;3.95;;;1.85;;
59239;SDS011;45010;53.640;10.578;2022-10-17T13:44:34;4.75;;;2.00;;
59239;SDS011;45010;53.640;10.578;2022-10-17T13:47:35;8.13;;;2.25;;
59239;SDS011;45010;53.640;10.578;2022-10-17T13:50:39;2.92;;;1.90;;
59239;SDS011;45010;53.640;10.578;2022-10-17T13:53:40;4.32;;;2.08;;
59239;SDS011;45010;53.640;10.578;2022-10-17T13:56:43;5.15;;;1.90;;
59239;SDS011;45010;53.640;10.578;2022-10-17T13:59:44;6.47;;;1.80;;
59239;SDS011;45010;53.640;10.578;2022-10-17T14:02:49;4.38;;;2.20;;
59239;SDS011;45010;53.640;10.578;2022-10-17T14:09:27;5.93;;;2.65;;
59239;SDS011;45010;53.640;10.578;2022-10-17T14:12:29;3.47;;;1.92;;
59239;SDS011;45010;53.640;10.578;2022-10-17T14:15:30;3.05;;;1.88;;
59239;SDS011;45010;53.640;10.578;2022-10-17T14:18:33;6.20;;;2.20;;
59239;SDS011;45010;53.640;10.578;2022-10-17T14:21:35;4.85;;;1.85;;
59239;SDS011;45010;53.640;10.578;2022-10-17T14:24:35;4.40;;;1.95;;
59239;SDS011;45010;53.640;10.578;2022-10-17T14:27:36;4.45;;;1.88;;
59239;SDS011;45010;53.640;10.578;2022-10-17T14:30:52;3.33;;;1.98;;
59239;SDS011;45010;53.640;10.578;2022-10-17T14:33:54;6.55;;;1.65;;
59239;SDS011;45010;53.640;10.578;2022-10-17T14:36:55;8.63;;;1.98;;
59239;SDS011;45010;53.640;10.578;2022-10-17T14:39:57;9.18;;;2.00;;
59239;SDS011;45010;53.640;10.578;2022-10-17T14:43:00;5.90;;;2.17;;
59239;SDS011;45010;53.640;10.578;2022-10-17T14:46:04;3.42;;;2.00;;
59239;SDS011;45010;53.640;10.578;2022-10-17T14:49:05;7.25;;;1.90;;
59239;SDS011;45010;53.640;10.578;2022-10-17T14:55:25;4.43;;;2.03;;
59239;SDS011;45010;53.640;10.578;2022-10-17T14:58:28;3.55;;;1.92;;
59239;SDS011;45010;53.640;10.578;2022-10-17T15:01:30;3.08;;;1.98;;
59239;SDS011;45010;53.640;10.578;2022-10-17T15:04:31;3.70;;;1.73;;
59239;SDS011;45010;53.640;10.578;2022-10-17T15:07:31;2.15;;;1.92;;
59239;SDS011;45010;53.640;10.578;2022-10-17T15:10:33;2.67;;;1.60;;
59239;SDS011;45010;53.640;10.578;2022-10-17T15:13:35;4.53;;;1.83;;
59239;SDS011;45010;53.640;10.578;2022-10-17T15:16:35;2.00;;;1.65;;
59239;SDS011;45010;53.640;10.578;2022-10-17T15:19:38;2.50;;;1.70;;
59239;SDS011;45010;53.640;10.578;2022-10-17T15:22:38;4.03;;;1.90;;
59239;SDS011;45010;53.640;10.578;2022-10-17T15:25:38;2.95;;;1.48;;
59239;SDS011;45010;53.640;10.578;2022-10-17T15:28:39;3.03;;;1.95;;
59239;SDS011;45010;53.640;10.578;2022-10-17T15:31:39;3.38;;;1.80;;
59239;SDS011;45010;53.640;10.578;2022-10-17T15:34:40;3.35;;;2.00;;
59239;SDS011;45010;53.640;10.578;2022-10-17T15:37:41;5.03;;;1.80;;
59239;SDS011;45010;53.640;10.578;2022-10-17T15:40:42;5.90;;;2.03;;
59239;SDS011;45010;53.640;10.578;2022-10-17T15:43:42;5.15;;;1.90;;
59239;SDS011;45010;53.640;10.578;2022-10-17T15:46:42;8.27;;;2.13;;
59239;SDS011;45010;53.640;10.578;2022-10-17T15:49:43;3.13;;;2.25;;
59239;SDS011;45010;53.640;10.578;2022-10-17T15:52:43;3.53;;;1.83;;
59239;SDS011;45010;53.640;10.578;2022-10-17T15:55:46;3.58;;;2.08;;
59239;SDS011;45010;53.640;10.578;2022-10-17T15:58:49;3.58;;;1.90;;
59239;SDS011;45010;53.640;10.578;2022-10-17T16:01:50;3.95;;;1.70;;
59239;SDS011;45010;53.640;10.578;2022-10-17T16:04:51;4.18;;;1.70;;
59239;SDS011;45010;53.640;10.578;2022-10-17T16:07:52;2.03;;;1.50;;
59239;SDS011;45010;53.640;10.578;2022-10-17T16:10:52;2.03;;;1.50;;
59239;SDS011;45010;53.640;10.578;2022-10-17T16:13:53;3.90;;;1.70;;
59239;SDS011;45010;53.640;10.578;2022-10-17T16:16:56;2.33;;;1.58;;
59239;SDS011;45010;53.640;10.578;2022-10-17T16:19:56;3.17;;;1.83;;
59239;SDS011;45010;53.640;10.578;2022-10-17T16:22:56;2.15;;;1.55;;
59239;SDS011;45010;53.640;10.578;2022-10-17T16:25:59;4.20;;;1.80;;
59239;SDS011;45010;53.640;10.578;2022-10-17T16:29:00;4.07;;;1.42;;
59239;SDS011;45010;53.640;10.578;2022-10-17T16:32:02;2.72;;;1.80;;
59239;SDS011;45010;53.640;10.578;2022-10-17T16:35:03;3.67;;;1.42;;
59239;SDS011;45010;53.640;10.578;2022-10-17T16:38:04;2.33;;;1.88;;
59239;SDS011;45010;53.640;10.578;2022-10-17T16:41:20;1.83;;;1.40;;
59239;SDS011;45010;53.640;10.578;2022-10-17T16:44:28;2.45;;;1.73;;
59239;SDS011;45010;53.640;10.578;2022-10-17T16:47:28;3.10;;;1.63;;
59239;SDS011;45010;53.640;10.578;2022-10-17T16:50:28;4.90;;;2.30;;
59239;SDS011;45010;53.640;10.578;2022-10-17T16:53:34;6.60;;;2.90;;
59239;SDS011;45010;53.640;10.578;2022-10-17T16:56:38;7.75;;;3.45;;
59239;SDS011;45010;53.640;10.578;2022-10-17T16:59:41;5.78;;;2.95;;
59239;SDS011;45010;53.640;10.578;2022-10-17T17:02:41;8.43;;;3.28;;
59239;SDS011;45010;53.640;10.578;2022-10-17T17:05:41;9.60;;;3.50;;
59239;SDS011;45010;53.640;10.578;2022-10-17T17:08:42;5.53;;;3.08;;
59239;SDS011;45010;53.640;10.578;2022-10-17T17:11:43;9.10;;;3.72;;
59239;SDS011;45010;53.640;10.578;2022-10-17T17:14:43;9.18;;;3.30;;
59239;SDS011;45010;53.640;10.578;2022-10-17T17:17:43;6.10;;;3.35;;
59239;SDS011;45010;53.640;10.578;2022-10-17T17:20:43;6.88;;;3.60;;
59239;SDS011;45010;53.640;10.578;2022-10-17T17:23:44;6.72;;;3.42;;
59239;SDS011;45010;53.640;10.578;2022-10-17T17:26:44;9.30;;;3.80;;
59239;SDS011;45010;53.640;10.578;2022-10-17T17:29:45;5.72;;;2.90;;
59239;SDS011;45010;53.640;10.578;2022-10-17T17:32:46;8.63;;;3.65;;
59239;SDS011;45010;53.640;10.578;2022-10-17T17:35:46;7.28;;;2.88;;
59239;SDS011;45010;53.640;10.578;2022-10-17T17:38:47;8.77;;;3.30;;
59239;SDS011;45010;53.640;10.578;2022-10-17T17:41:51;7.85;;;3.30;;
59239;SDS011;45010;53.640;10.578;2022-10-17T17:44:51;4.45;;;2.90;;
59239;SDS011;45010;53.640;10.578;2022-10-17T17:47:52;6.47;;;2.92;;
59239;SDS011;45010;53.640;10.578;2022-10-17T17:50:54;7.32;;;3.13;;
59239;SDS011;45010;53.640;10.578;2022-10-17T17:53:54;6.90;;;2.92;;
59239;SDS011;45010;53.640;10.578;2022-10-17T17:56:55;5.88;;;2.75;;
59239;SDS011;45010;53.640;10.578;2022-10-17T17:59:55;5.43;;;2.80;;
59239;SDS011;45010;53.640;10.578;2022-10-17T18:02:56;6.57;;;3.10;;
59239;SDS011;45010;53.640;10.578;2022-10-17T18:05:56;5.03;;;2.40;;
59239;SDS011;45010;53.640;10.578;2022-10-17T18:08:57;7.53;;;2.80;;
59239;SDS011;45010;53.640;10.578;2022-10-17T18:11:58;5.15;;;2.70;;
59239;SDS011;45010;53.640;10.578;2022-10-17T18:14:58;4.88;;;2.42;;
59239;SDS011;45010;53.640;10.578;2022-10-17T18:17:58;5.25;;;2.67;;
59239;SDS011;45010;53.640;10.578;2022-10-17T18:20:59;3.88;;;2.60;;
59239;SDS011;45010;53.640;10.578;2022-10-17T18:24:00;4.28;;;2.13;;
59239;SDS011;45010;53.640;10.578;2022-10-17T18:27:01;5.18;;;2.30;;
59239;SDS011;45010;53.640;10.578;2022-10-17T18:30:01;5.75;;;2.65;;
59239;SDS011;45010;53.640;10.578;2022-10-17T18:33:02;4.85;;;2.67;;
59239;SDS011;45010;53.640;10.578;2022-10-17T18:36:03;5.97;;;2.30;;
59239;SDS011;45010;53.640;10.578;2022-10-17T18:39:05;4.47;;;2.15;;
59239;SDS011;45010;53.640;10.578;2022-10-17T18:42:05;4.20;;;2.47;;
59239;SDS011;45010;53.640;10.578;2022-10-17T18:45:06;4.82;;;2.40;;
59239;SDS011;45010;53.640;10.578;2022-10-17T18:48:07;5.82;;;2.40;;
59239;SDS011;45010;53.640;10.578;2022-10-17T18:51:09;4.07;;;2.25;;
59239;SDS011;45010;53.640;10.578;2022-10-17T18:54:11;4.80;;;2.20;;
59239;SDS011;45010;53.640;10.578;2022-10-17T18:57:13;5.63;;;2.38;;
59239;SDS011;45010;53.640;10.578;2022-10-17T19:00:14;4.45;;;2.10;;
59239;SDS011;45010;53.640;10.578;2022-10-17T19:03:16;5.05;;;2.50;;
59239;SDS011;45010;53.640;10.578;2022-10-17T19:06:19;3.97;;;2.33;;
59239;SDS011;45010;53.640;10.578;2022-10-17T19:09:21;4.45;;;2.40;;
59239;SDS011;45010;53.640;10.578;2022-10-17T19:12:22;3.72;;;2.25;;
59239;SDS011;45010;53.640;10.578;2022-10-17T19:15:22;3.30;;;2.30;;
59239;SDS011;45010;53.640;10.578;2022-10-17T19:18:22;6.05;;;2.47;;
59239;SDS011;45010;53.640;10.578;2022-10-17T19:21:23;6.20;;;2.65;;
59239;SDS011;45010;53.640;10.578;2022-10-17T19:24:25;4.22;;;2.35;;
59239;SDS011;45010;53.640;10.578;2022-10-17T19:27:26;4.95;;;2.53;;
59239;SDS011;45010;53.640;10.578;2022-10-17T19:30:26;4.22;;;2.00;;
59239;SDS011;45010;53.640;10.578;2022-10-17T19:33:27;4.82;;;2.20;;
59239;SDS011;45010;53.640;10.578;2022-10-17T19:36:28;3.90;;;2.10;;